Skytop, Pennsylvania
Current Conditions -  °F | °C
As of 3:53 PM on Thursday 20 Nov 2014 (Local Time) from KMPO Reporting Station
Few Clouds Few Clouds  
Wind Chill: 19°   Ceiling: Unl
Heat Index: 30°   Visibility: 10mi
Dew Point: 13°   Wind: 16mph
Humidity: 49%   Direction: 280°W
Pressure: 29.8"   Gusts: 28mph
Location:  41.23°N, 75.24°W
Report Text: KMPO 202053Z AUTO 28014G24KT 10SM FEW044 M01/M11 A2980 RMK AO2 PK WND 28026/2007 SLP113 T10111106 53006
Loading
Personal Weather Stations






























Interactive Weather Map New forecast layout! Learn more

10-Day Weather Forecast

Advertisements
Track Severe Weather on mobile